Time;durP1;ratioP1;P1;durP2;ratioP2;P2;SDS_P1;SDS_P2;PMS_P1;PMS_P2;Temp;Humidity;BMP_temperature;BMP_pressure;BME280_temperature;BME280_humidity;BME280_pressure;Samples;Min_cycle;Max_cycle;Signal;HPM_P1;HPM_P2
2023/11/30 00:00:50;;;;;;;14.93;9.15;;;-0.90;99.90;;;;;;6277003;22;20107;-82
2023/11/30 00:03:38;;;;;;;15.05;9.05;;;-1.00;99.90;;;;;;6279095;22;20445;-84
2023/11/30 00:06:27;;;;;;;15.63;9.75;;;-1.10;99.90;;;;;;6275200;22;20027;-83
2023/11/30 00:09:15;;;;;;;15.63;9.30;;;-1.20;99.90;;;;;;6274631;22;20059;-80
2023/11/30 00:12:03;;;;;;;18.45;9.68;;;-1.30;99.90;;;;;;6275405;22;20035;-84
2023/11/30 00:14:50;;;;;;;16.92;10.02;;;-1.40;99.90;;;;;;6278154;22;20078;-84
2023/11/30 00:17:40;;;;;;;17.80;10.68;;;-1.20;99.90;;;;;;6274817;22;20101;-83
2023/11/30 00:20:27;;;;;;;17.23;10.93;;;-1.00;99.90;;;;;;6272648;22;20051;-84
2023/11/30 00:23:14;;;;;;;17.08;10.68;;;-0.80;99.90;;;;;;6274861;22;20030;-84
2023/11/30 00:26:02;;;;;;;17.30;10.45;;;-0.70;99.90;;;;;;6275049;22;20034;-83
2023/11/30 00:28:49;;;;;;;14.40;9.75;;;-0.70;99.90;;;;;;6274418;22;20023;-83
2023/11/30 00:31:38;;;;;;;14.35;9.38;;;-0.90;99.90;;;;;;6276765;22;20510;-84
2023/11/30 00:34:26;;;;;;;15.45;9.75;;;-0.90;99.90;;;;;;6273858;22;20027;-84
2023/11/30 00:37:13;;;;;;;15.48;10.25;;;-1.00;99.90;;;;;;6275942;22;20023;-84
2023/11/30 00:40:03;;;;;;;14.27;9.55;;;-1.10;99.90;;;;;;6274336;22;20098;-83
2023/11/30 00:42:51;;;;;;;18.38;9.68;;;-1.20;99.90;;;;;;6273535;22;20081;-83
2023/11/30 00:45:41;;;;;;;17.42;10.43;;;-1.30;99.90;;;;;;6276123;22;20032;-81
2023/11/30 00:48:30;;;;;;;15.75;10.73;;;-1.30;99.90;;;;;;6275999;22;20038;-83
2023/11/30 00:51:20;;;;;;;21.05;11.15;;;-1.40;99.90;;;;;;6275309;22;20414;-83
2023/11/30 00:54:07;;;;;;;18.60;10.02;;;-1.40;99.90;;;;;;6276871;22;20294;-81
2023/11/30 00:56:57;;;;;;;20.63;11.32;;;-1.40;99.90;;;;;;6274714;22;20035;-83
2023/11/30 00:59:44;;;;;;;21.02;11.63;;;-1.40;99.90;;;;;;6276023;22;20028;-84
2023/11/30 01:02:32;;;;;;;16.45;9.95;;;-1.30;99.90;;;;;;6272723;22;20023;-83
2023/11/30 01:05:21;;;;;;;26.65;12.43;;;-1.30;99.90;;;;;;6272045;22;20031;-82
2023/11/30 01:08:14;;;;;;;19.08;10.82;;;-1.30;99.90;;;;;;6277784;22;20031;-82
2023/11/30 01:11:06;;;;;;;17.08;11.55;;;-1.40;99.90;;;;;;6276437;22;20028;-83
2023/11/30 01:13:56;;;;;;;;;;;-1.50;99.90;;;;;;6276175;22;20044;-82
2023/11/30 01:16:46;;;;;;;18.55;10.95;;;-1.50;99.90;;;;;;6275367;22;20142;-83
2023/11/30 01:19:33;;;;;;;18.55;11.13;;;-1.60;99.90;;;;;;6272335;22;20023;-83
2023/11/30 01:22:20;;;;;;;21.40;12.93;;;-1.60;99.90;;;;;;6275131;22;20555;-83
2023/11/30 01:25:07;;;;;;;19.40;12.80;;;-1.60;99.90;;;;;;6274422;22;20026;-81
2023/11/30 01:27:55;;;;;;;22.40;12.15;;;-1.70;99.90;;;;;;6274466;22;20027;-81
2023/11/30 01:30:42;;;;;;;20.70;12.27;;;-1.80;99.90;;;;;;6277261;22;20016;-84
2023/11/30 01:33:29;;;;;;;22.70;13.40;;;-1.90;99.90;;;;;;6270242;22;20027;-84
2023/11/30 01:36:16;;;;;;;19.05;12.55;;;-1.90;99.90;;;;;;6275724;22;20026;-80
2023/11/30 01:39:04;;;;;;;21.02;12.98;;;-2.10;99.90;;;;;;6274574;22;20019;-84
2023/11/30 01:41:51;;;;;;;20.85;13.13;;;-2.20;99.90;;;;;;6273823;22;20355;-83
2023/11/30 01:44:41;;;;;;;20.08;12.68;;;-2.30;99.90;;;;;;6273860;22;20333;-83
2023/11/30 01:47:32;;;;;;;22.92;13.30;;;-2.40;99.90;;;;;;6273029;22;20497;-83
2023/11/30 01:50:20;;;;;;;22.40;13.90;;;-2.40;99.90;;;;;;6274347;22;20351;-83
2023/11/30 01:53:08;;;;;;;20.45;12.85;;;-2.50;99.90;;;;;;6275474;22;20315;-83
2023/11/30 01:55:56;;;;;;;25.70;13.65;;;-2.50;99.90;;;;;;6276569;22;20030;-83
2023/11/30 01:58:44;;;;;;;22.90;13.38;;;-2.60;99.90;;;;;;6278327;22;20036;-82
2023/11/30 02:01:32;;;;;;;23.80;14.05;;;-2.60;99.90;;;;;;6275829;22;20023;-83
2023/11/30 02:04:21;;;;;;;21.10;14.07;;;-2.60;99.90;;;;;;6275020;22;20030;-83
2023/11/30 02:07:09;;;;;;;23.45;14.32;;;-2.70;99.90;;;;;;6273214;22;20065;-83
2023/11/30 02:09:59;;;;;;;26.70;14.10;;;-2.60;99.90;;;;;;6273234;22;20024;-82
2023/11/30 02:12:46;;;;;;;26.63;14.20;;;-2.60;99.90;;;;;;6275735;22;20038;-80
2023/11/30 02:15:34;;;;;;;25.73;14.05;;;-2.60;99.90;;;;;;6275505;22;20031;-80
2023/11/30 02:18:21;;;;;;;22.23;13.20;;;-2.60;99.90;;;;;;6274710;22;20127;-82
2023/11/30 02:21:08;;;;;;;29.38;14.45;;;-2.50;99.90;;;;;;6274951;22;20031;-83
2023/11/30 02:23:56;;;;;;;22.98;13.45;;;-2.60;99.90;;;;;;6276971;22;20039;-83
2023/11/30 02:26:45;;;;;;;26.42;13.43;;;-2.70;99.90;;;;;;6272836;22;20084;-83
2023/11/30 02:29:37;;;;;;;23.88;12.57;;;-2.70;99.90;;;;;;6276243;22;20027;-82
2023/11/30 02:32:25;;;;;;;24.60;13.38;;;-2.80;99.90;;;;;;6273537;22;20410;-82
2023/11/30 02:35:12;;;;;;;25.90;13.85;;;-2.70;99.90;;;;;;6272937;22;20023;-83
2023/11/30 02:38:02;;;;;;;23.98;13.65;;;-2.70;99.90;;;;;;6273314;22;20362;-82
2023/11/30 02:40:49;;;;;;;25.25;13.63;;;-2.60;99.90;;;;;;6271518;22;20024;-83
2023/11/30 02:43:36;;;;;;;24.88;13.77;;;-2.60;99.90;;;;;;6271414;22;20016;-83
2023/11/30 02:46:24;;;;;;;25.45;13.85;;;-2.60;99.90;;;;;;6272925;22;20027;-82
2023/11/30 02:49:11;;;;;;;24.23;14.52;;;-2.50;99.90;;;;;;6272044;22;20027;-82
2023/11/30 02:51:59;;;;;;;26.23;15.23;;;-2.50;99.90;;;;;;6272044;22;20262;-83
2023/11/30 02:54:47;;;;;;;24.20;14.27;;;-2.50;99.90;;;;;;6275696;22;20058;-81
2023/11/30 02:57:35;;;;;;;30.48;17.00;;;-2.50;99.90;;;;;;6276287;22;20020;-82
2023/11/30 03:00:24;;;;;;;27.88;16.13;;;-2.60;99.90;;;;;;6271750;22;20020;-83
2023/11/30 03:03:11;;;;;;;30.70;16.92;;;-2.50;99.90;;;;;;6273101;22;20027;-83
2023/11/30 03:05:59;;;;;;;32.00;17.70;;;-2.50;99.90;;;;;;6273424;22;20059;-83
2023/11/30 03:08:46;;;;;;;34.38;18.60;;;-2.50;99.90;;;;;;6276477;22;20038;-82
2023/11/30 03:11:34;;;;;;;35.25;17.25;;;-2.50;99.90;;;;;;6272258;22;20023;-83
2023/11/30 03:14:22;;;;;;;36.28;18.73;;;-2.40;99.90;;;;;;6274350;22;20027;-83
2023/11/30 03:17:09;;;;;;;34.05;17.83;;;-2.40;99.90;;;;;;6280228;22;20024;-83
2023/11/30 03:19:56;;;;;;;32.88;17.13;;;-2.30;99.90;;;;;;6272686;22;20031;-83
2023/11/30 03:22:43;;;;;;;35.03;17.17;;;-2.30;99.90;;;;;;6279382;22;20023;-83
2023/11/30 03:25:32;;;;;;;33.13;17.60;;;-2.30;99.90;;;;;;6282005;22;20024;-83
2023/11/30 03:28:20;;;;;;;33.38;18.27;;;-2.30;99.90;;;;;;6287134;22;20034;-83
2023/11/30 03:31:07;;;;;;;35.30;19.17;;;-2.20;99.90;;;;;;6289039;22;20337;-79
2023/11/30 03:33:57;;;;;;;29.25;16.58;;;-2.20;99.90;;;;;;6291249;22;20019;-83
2023/11/30 03:36:44;;;;;;;33.90;17.95;;;-2.20;99.90;;;;;;6285955;22;20069;-82
2023/11/30 03:39:34;;;;;;;36.72;19.35;;;-2.20;99.90;;;;;;6274155;22;20175;-82
2023/11/30 03:42:21;;;;;;;66.68;26.58;;;-2.20;99.90;;;;;;6275435;22;20024;-80
2023/11/30 03:45:09;;;;;;;68.18;26.92;;;-2.20;99.90;;;;;;6276856;22;20019;-82
2023/11/30 03:47:56;;;;;;;31.05;17.40;;;-2.20;99.90;;;;;;6275809;22;20072;-83
2023/11/30 03:50:43;;;;;;;40.33;18.30;;;-2.20;99.90;;;;;;6273293;22;20085;-81
2023/11/30 03:53:31;;;;;;;37.03;19.02;;;-2.30;99.90;;;;;;6274209;22;20024;-82
2023/11/30 03:56:20;;;;;;;35.85;17.73;;;-2.30;99.90;;;;;;6275002;22;20031;-83
2023/11/30 03:59:10;;;;;;;38.60;18.52;;;-2.30;99.90;;;;;;6276420;22;20030;-83
2023/11/30 04:01:57;;;;;;;34.38;19.08;;;-2.30;99.90;;;;;;6273308;22;20026;-83
2023/11/30 04:04:44;;;;;;;32.13;17.95;;;-2.20;99.90;;;;;;6274330;22;20099;-83
2023/11/30 04:07:34;;;;;;;31.45;18.08;;;-2.20;99.90;;;;;;6272897;22;20034;-82
2023/11/30 04:10:24;;;;;;;31.80;16.83;;;-2.20;99.90;;;;;;6274317;22;20521;-81
2023/11/30 04:13:11;;;;;;;29.48;16.50;;;-2.10;99.90;;;;;;6276223;22;20024;-83
2023/11/30 04:15:58;;;;;;;36.92;18.38;;;-2.10;99.90;;;;;;6273830;22;20020;-83
2023/11/30 04:18:48;;;;;;;36.28;18.52;;;-2.10;99.90;;;;;;6274236;22;20024;-82
2023/11/30 04:21:35;;;;;;;79.38;31.13;;;-2.10;99.90;;;;;;6274731;22;20448;-82
2023/11/30 04:24:22;;;;;;;41.35;20.52;;;-2.10;99.90;;;;;;6274660;22;20067;-82
2023/11/30 04:27:10;;;;;;;50.83;22.50;;;-2.10;99.90;;;;;;6273509;22;20027;-82
2023/11/30 04:29:57;;;;;;;58.03;22.85;;;-2.20;99.90;;;;;;6273539;22;20023;-82
2023/11/30 04:32:44;;;;;;;45.30;19.52;;;-2.30;99.90;;;;;;6273809;22;20073;-82
2023/11/30 04:35:32;;;;;;;39.90;18.75;;;-2.30;99.90;;;;;;6271730;22;20137;-82
2023/11/30 04:38:21;;;;;;;32.97;17.73;;;-2.30;99.90;;;;;;6273655;22;20099;-82
2023/11/30 04:41:08;;;;;;;33.25;18.08;;;-2.30;99.90;;;;;;6271857;22;20030;-82
2023/11/30 04:43:56;;;;;;;30.83;17.85;;;-2.20;99.90;;;;;;6274593;22;20024;-83
2023/11/30 04:46:44;;;;;;;38.53;18.35;;;-2.20;99.90;;;;;;6271354;22;20309;-83
2023/11/30 04:49:33;;;;;;;31.92;18.02;;;-2.20;99.90;;;;;;6274610;22;20039;-83
2023/11/30 04:52:23;;;;;;;34.67;17.88;;;-2.20;99.90;;;;;;6275182;22;20122;-84
2023/11/30 04:55:10;;;;;;;31.13;18.38;;;-2.20;99.90;;;;;;6274182;22;20089;-82
2023/11/30 04:57:58;;;;;;;32.20;17.55;;;-2.20;99.90;;;;;;6276487;22;20031;-83
2023/11/30 05:00:45;;;;;;;31.95;18.02;;;-2.20;99.90;;;;;;6275262;22;20030;-80
2023/11/30 05:03:32;;;;;;;35.53;17.23;;;-2.20;99.90;;;;;;6273270;22;20023;-82
2023/11/30 05:06:20;;;;;;;42.05;19.50;;;-2.20;99.90;;;;;;6275373;22;20034;-83
2023/11/30 05:09:09;;;;;;;29.63;17.98;;;-2.10;99.90;;;;;;6271266;22;20055;-83
2023/11/30 05:11:57;;;;;;;30.25;15.77;;;-2.20;99.90;;;;;;6274218;22;20111;-82
2023/11/30 05:14:44;;;;;;;32.05;16.00;;;-2.20;99.90;;;;;;6276507;22;20020;-82
2023/11/30 05:17:34;;;;;;;32.22;17.10;;;-2.30;99.90;;;;;;6272807;22;20020;-83
2023/11/30 05:20:21;;;;;;;43.85;21.00;;;-2.30;99.90;;;;;;6271004;22;20102;-82
2023/11/30 05:23:09;;;;;;;39.92;18.98;;;-2.30;99.90;;;;;;6274523;22;20100;-82
2023/11/30 05:25:59;;;;;;;50.88;21.58;;;-2.30;99.90;;;;;;6273047;22;20535;-82
2023/11/30 05:28:46;;;;;;;47.95;21.10;;;-2.30;99.90;;;;;;6273483;22;20023;-82
2023/11/30 05:31:36;;;;;;;38.17;18.42;;;-2.30;99.90;;;;;;6274067;22;20034;-82
2023/11/30 05:34:23;;;;;;;38.22;19.45;;;-2.30;99.90;;;;;;6273699;22;20174;-82
2023/11/30 05:37:15;;;;;;;41.38;18.30;;;-2.30;99.90;;;;;;6274169;22;20019;-78
2023/11/30 05:40:04;;;;;;;35.88;19.13;;;-2.30;99.90;;;;;;6274449;22;20035;-80
2023/11/30 05:42:54;;;;;;;36.42;20.02;;;-2.20;99.90;;;;;;6274409;22;20077;-82
2023/11/30 05:45:41;;;;;;;39.40;20.00;;;-2.10;99.90;;;;;;6272419;22;20111;-82
2023/11/30 05:48:28;;;;;;;46.90;23.77;;;-1.80;99.90;;;;;;6273102;22;20275;-79
2023/11/30 05:51:16;;;;;;;40.90;21.83;;;-1.70;99.90;;;;;;6275158;22;20027;-82
2023/11/30 05:54:03;;;;;;;34.38;19.85;;;-1.60;99.90;;;;;;6274236;22;20098;-82
2023/11/30 05:56:51;;;;;;;33.53;20.60;;;-1.50;99.90;;;;;;6274366;22;20432;-83
2023/11/30 05:59:38;;;;;;;40.05;19.70;;;-1.50;99.90;;;;;;6274547;22;20334;-84
2023/11/30 06:02:26;;;;;;;36.25;19.52;;;-1.50;99.90;;;;;;6272573;22;20034;-84
2023/11/30 06:05:14;;;;;;;34.88;19.10;;;-1.40;99.90;;;;;;6274932;22;20433;-84
2023/11/30 06:08:01;;;;;;;45.28;22.75;;;-1.40;99.90;;;;;;6271237;22;20038;-80
2023/11/30 06:10:49;;;;;;;38.65;21.73;;;-1.40;99.90;;;;;;6272793;22;20420;-84
2023/11/30 06:13:37;;;;;;;32.30;18.00;;;-1.40;99.90;;;;;;6269583;22;20027;-84
2023/11/30 06:16:27;;;;;;;29.17;17.90;;;-1.40;99.90;;;;;;6271436;22;20027;-84
2023/11/30 06:19:14;;;;;;;28.58;16.70;;;-1.40;99.90;;;;;;6272278;22;20027;-82
2023/11/30 06:22:02;;;;;;;28.27;17.50;;;-1.40;99.90;;;;;;6272401;22;20302;-83
2023/11/30 06:24:49;;;;;;;26.30;17.05;;;-1.50;99.90;;;;;;6270430;22;20024;-83
2023/11/30 06:27:36;;;;;;;23.77;14.63;;;-1.50;99.90;;;;;;6273362;22;20034;-83
2023/11/30 06:30:23;;;;;;;21.48;13.27;;;-1.60;99.90;;;;;;6274314;22;20019;-84
2023/11/30 06:33:11;;;;;;;24.77;14.82;;;-1.60;99.90;;;;;;6274264;22;20433;-84
2023/11/30 06:36:01;;;;;;;28.27;16.70;;;-1.60;99.90;;;;;;6268389;22;20402;-84
2023/11/30 06:38:49;;;;;;;27.00;16.00;;;-1.50;99.90;;;;;;6271796;22;20063;-85
2023/11/30 06:41:36;;;;;;;24.33;15.55;;;-1.50;99.90;;;;;;6270773;22;20026;-84
2023/11/30 06:44:25;;;;;;;29.88;16.52;;;-1.50;99.90;;;;;;6273836;22;20024;-84
2023/11/30 06:47:13;;;;;;;28.30;16.52;;;-1.50;99.90;;;;;;6272592;22;20028;-85
2023/11/30 06:50:00;;;;;;;48.10;18.58;;;-1.50;99.90;;;;;;6272740;22;20366;-84
2023/11/30 06:52:47;;;;;;;48.25;17.13;;;-1.60;99.90;;;;;;6271105;22;20106;-84
2023/11/30 06:55:40;;;;;;;103.20;32.38;;;-1.70;99.90;;;;;;6272007;22;20034;-84
2023/11/30 06:58:28;;;;;;;58.58;22.52;;;-1.70;99.90;;;;;;6273702;22;20024;-84
2023/11/30 07:01:16;;;;;;;30.40;15.25;;;-1.70;99.90;;;;;;6271560;22;20023;-85
2023/11/30 07:04:03;;;;;;;60.03;20.92;;;-1.80;99.90;;;;;;6273347;22;20030;-83
2023/11/30 07:06:50;;;;;;;40.63;17.20;;;-1.80;99.90;;;;;;6275717;22;20114;-79
2023/11/30 07:09:40;;;;;;;37.00;17.48;;;-1.70;99.90;;;;;;6271965;22;20120;-84
2023/11/30 07:12:27;;;;;;;29.05;15.80;;;-1.70;99.90;;;;;;6274289;22;20028;-84
2023/11/30 07:15:15;;;;;;;26.55;14.75;;;-1.60;99.90;;;;;;6270396;22;20363;-83
2023/11/30 07:18:02;;;;;;;28.00;15.07;;;-1.60;99.90;;;;;;6273949;22;20066;-84
2023/11/30 07:20:53;;;;;;;27.30;15.77;;;-1.50;99.90;;;;;;6275590;22;20023;-84
2023/11/30 07:23:41;;;;;;;32.28;16.55;;;-1.50;99.90;;;;;;6274199;22;20054;-84
2023/11/30 07:26:29;;;;;;;28.00;15.10;;;-1.50;99.90;;;;;;6276371;22;20098;-83
2023/11/30 07:29:18;;;;;;;30.27;14.57;;;-1.50;99.90;;;;;;6274416;22;20019;-83
2023/11/30 07:32:06;;;;;;;25.60;14.50;;;-1.50;99.90;;;;;;6276341;22;20404;-83
2023/11/30 07:34:55;;;;;;;25.05;13.93;;;-1.50;99.90;;;;;;6274049;22;20027;-83
2023/11/30 07:37:42;;;;;;;22.95;13.65;;;-1.50;99.90;;;;;;6275366;22;20020;-83
2023/11/30 07:40:32;;;;;;;27.08;13.93;;;-1.50;99.90;;;;;;6273719;22;20015;-84
2023/11/30 07:43:21;;;;;;;25.05;14.75;;;-1.50;99.90;;;;;;6277149;22;20027;-83
2023/11/30 07:46:09;;;;;;;23.23;14.35;;;-1.40;99.90;;;;;;6275396;22;20094;-81
2023/11/30 07:48:56;;;;;;;23.80;13.85;;;-1.40;99.90;;;;;;6272412;22;20103;-84
2023/11/30 07:51:46;;;;;;;24.63;14.50;;;-1.30;99.90;;;;;;6272414;22;20047;-84
2023/11/30 07:54:33;;;;;;;23.40;14.50;;;-1.20;99.90;;;;;;6274763;22;20019;-83
2023/11/30 07:57:21;;;;;;;22.67;14.25;;;-1.10;99.90;;;;;;6277415;22;20047;-80
2023/11/30 08:00:11;;;;;;;24.85;14.25;;;-1.10;99.90;;;;;;6280684;22;20043;-81
2023/11/30 08:02:59;;;;;;;43.40;17.90;;;-1.10;99.90;;;;;;6280449;22;20023;-82
2023/11/30 08:05:49;;;;;;;35.03;15.65;;;-1.00;99.90;;;;;;6278817;22;20126;-83
2023/11/30 08:08:39;;;;;;;34.05;15.48;;;-1.00;99.90;;;;;;6278372;22;20034;-84
2023/11/30 08:11:28;;;;;;;24.95;14.95;;;-1.00;99.90;;;;;;6273862;22;20034;-83
2023/11/30 08:14:19;;;;;;;29.27;15.00;;;-1.00;99.90;;;;;;6273766;22;20163;-85
2023/11/30 08:17:11;;;;;;;34.92;17.02;;;-1.00;99.90;;;;;;6273443;22;20130;-85
2023/11/30 08:19:59;;;;;;;31.92;16.48;;;-0.90;99.90;;;;;;6273147;22;20444;-83
2023/11/30 08:22:46;;;;;;;23.42;14.85;;;-0.90;99.90;;;;;;6274253;22;20481;-84
2023/11/30 08:25:36;;;;;;;28.08;14.65;;;-0.90;99.90;;;;;;6276470;22;20019;-85
2023/11/30 08:28:25;;;;;;;28.58;15.23;;;-0.80;99.90;;;;;;6276238;22;20332;-85
2023/11/30 08:31:13;;;;;;;21.52;13.70;;;-0.80;99.90;;;;;;6275966;22;20407;-84
2023/11/30 08:34:02;;;;;;;25.70;12.93;;;-0.70;99.90;;;;;;6275819;22;20084;-84
2023/11/30 08:36:50;;;;;;;20.10;12.65;;;-0.70;99.90;;;;;;6273685;22;20046;-81
2023/11/30 08:39:38;;;;;;;17.42;11.45;;;-0.70;99.90;;;;;;6275323;22;20402;-81
2023/11/30 08:42:27;;;;;;;21.02;13.45;;;-0.60;99.90;;;;;;6277755;22;20287;-84
2023/11/30 08:45:15;;;;;;;19.20;11.93;;;-0.60;99.90;;;;;;6272995;22;20398;-84
2023/11/30 08:48:02;;;;;;;20.50;12.30;;;-0.50;99.90;;;;;;6272042;22;20024;-84
2023/11/30 08:50:52;;;;;;;18.85;11.80;;;-0.50;99.90;;;;;;6275271;22;20093;-84
2023/11/30 08:53:42;;;;;;;22.73;12.70;;;-0.40;99.90;;;;;;6275512;22;20027;-83
2023/11/30 08:56:32;;;;;;;20.88;14.18;;;-0.50;99.90;;;;;;6273152;22;20035;-83
2023/11/30 08:59:20;;;;;;;26.30;16.75;;;-0.50;99.90;;;;;;6274689;22;20283;-83
2023/11/30 09:02:07;;;;;;;34.97;17.80;;;-0.50;99.90;;;;;;6274834;22;20098;-84
2023/11/30 09:04:55;;;;;;;41.03;17.67;;;-0.50;99.90;;;;;;6274031;22;20107;-83
2023/11/30 09:07:45;;;;;;;30.30;16.85;;;-0.40;99.90;;;;;;6275040;22;20028;-83
2023/11/30 09:10:33;;;;;;;31.52;15.88;;;-0.30;99.90;;;;;;6273821;22;20023;-84
2023/11/30 09:13:20;;;;;;;25.38;16.35;;;-0.10;99.90;;;;;;6274178;22;20085;-84
2023/11/30 09:16:11;;;;;;;24.85;14.82;;;0.10;99.90;;;;;;6275332;22;20027;-84
2023/11/30 09:18:58;;;;;;;22.63;15.15;;;0.20;99.90;;;;;;6278788;22;20020;-84
2023/11/30 09:21:48;;;;;;;21.58;13.82;;;0.40;99.90;;;;;;6282465;22;20019;-84
2023/11/30 09:24:36;;;;;;;23.40;14.05;;;0.50;99.90;;;;;;6287288;22;20034;-84
2023/11/30 09:27:23;;;;;;;21.35;14.15;;;0.70;99.90;;;;;;6290845;22;20037;-80
2023/11/30 09:30:11;;;;;;;22.65;14.23;;;0.80;99.90;;;;;;6299799;22;20075;-84
2023/11/30 09:32:59;;;;;;;27.50;16.02;;;0.90;99.90;;;;;;6300041;22;20023;-81
2023/11/30 09:35:46;;;;;;;23.85;15.07;;;1.00;99.90;;;;;;6293873;22;20034;-84
2023/11/30 09:38:34;;;;;;;24.10;15.00;;;1.10;99.90;;;;;;6287195;22;20030;-84
2023/11/30 09:41:23;;;;;;;27.48;16.63;;;1.30;99.90;;;;;;6283464;22;20079;-83
2023/11/30 09:44:13;;;;;;;34.45;17.38;;;1.40;99.90;;;;;;6274289;22;20023;-84
2023/11/30 09:47:05;;;;;;;32.88;18.15;;;1.40;99.90;;;;;;6274483;22;20023;-84
2023/11/30 09:49:52;;;;;;;26.20;15.27;;;1.40;99.90;;;;;;6278591;22;20061;-84
2023/11/30 09:52:42;;;;;;;26.85;15.60;;;1.40;99.90;;;;;;6277724;22;20100;-84
2023/11/30 09:55:31;;;;;;;29.55;16.40;;;1.40;99.90;;;;;;6275097;22;20089;-85
2023/11/30 09:58:21;;;;;;;24.15;14.70;;;1.50;99.90;;;;;;6274654;22;20024;-84
2023/11/30 10:01:09;;;;;;;30.70;15.10;;;1.60;99.90;;;;;;6276392;22;20058;-85
2023/11/30 10:03:56;;;;;;;21.73;14.30;;;1.70;99.90;;;;;;6275727;22;20035;-85
2023/11/30 10:06:48;;;;;;;24.83;14.70;;;1.70;99.90;;;;;;6278014;22;20689;-81
2023/11/30 10:09:38;;;;;;;32.85;17.05;;;1.70;99.90;;;;;;6274462;22;20263;-82
2023/11/30 10:12:25;;;;;;;49.25;23.33;;;1.80;99.90;;;;;;6278526;22;20028;-84
2023/11/30 10:15:13;;;;;;;42.38;22.10;;;1.70;99.90;;;;;;6277215;22;20027;-85
2023/11/30 10:18:04;;;;;;;40.20;21.83;;;1.60;99.90;;;;;;6272792;22;20134;-85
2023/11/30 10:20:52;;;;;;;41.35;21.42;;;1.60;99.90;;;;;;6273185;22;20110;-85
2023/11/30 10:23:39;;;;;;;38.53;22.23;;;1.50;99.90;;;;;;6272727;22;20023;-85
2023/11/30 10:26:32;;;;;;;37.58;22.52;;;1.40;99.90;;;;;;6278499;22;20026;-85
2023/11/30 10:29:23;;;;;;;39.47;21.42;;;1.50;99.90;;;;;;6273216;22;20103;-85
2023/11/30 10:32:16;;;;;;;27.80;14.25;;;1.50;99.90;;;;;;6278369;22;20118;-84
2023/11/30 10:35:07;;;;;;;28.85;15.10;;;1.50;99.90;;;;;;6273464;22;20024;-84
2023/11/30 10:37:57;;;;;;;29.08;16.25;;;1.50;99.90;;;;;;6273762;22;20035;-84
2023/11/30 10:40:48;;;;;;;24.38;15.77;;;1.50;99.90;;;;;;6274853;22;20035;-84
2023/11/30 10:43:37;;;;;;;28.25;17.17;;;1.50;99.90;;;;;;6273746;22;20064;-85
2023/11/30 10:46:26;;;;;;;28.00;16.33;;;1.40;99.90;;;;;;6275954;22;20686;-83
2023/11/30 10:49:15;;;;;;;28.40;17.23;;;1.50;99.90;;;;;;6273502;22;20027;-81
2023/11/30 10:52:04;;;;;;;27.80;16.60;;;1.60;99.90;;;;;;6276738;22;20152;-85
2023/11/30 10:55:03;;;;;;;26.27;16.40;;;1.70;99.90;;;;;;6275498;22;20036;-85
2023/11/30 10:57:53;;;;;;;30.63;17.27;;;1.70;99.90;;;;;;6275802;22;20023;-83
2023/11/30 11:00:44;;;;;;;28.15;17.08;;;1.70;99.90;;;;;;6277196;22;20051;-82
2023/11/30 11:03:32;;;;;;;35.85;20.13;;;1.70;99.90;;;;;;6280616;22;20279;-79
2023/11/30 11:06:29;;;;;;;39.33;22.25;;;1.60;99.90;;;;;;6280833;22;20534;-83
2023/11/30 11:09:16;;;;;;;34.45;20.35;;;1.50;99.90;;;;;;6280176;22;20493;-84
2023/11/30 11:12:04;;;;;;;29.88;18.42;;;1.40;99.90;;;;;;6274891;22;20035;-83
2023/11/30 11:15:08;;;;;;;31.00;17.08;;;1.30;99.90;;;;;;6276560;22;20484;-83
2023/11/30 11:18:05;;;;;;;29.50;18.00;;;1.30;99.90;;;;;;6274794;22;20032;-84
2023/11/30 11:20:53;;;;;;;30.98;18.75;;;1.40;99.90;;;;;;6276135;22;20073;-84
2023/11/30 11:23:42;;;;;;;26.73;16.27;;;1.40;99.90;;;;;;6273779;22;20020;-84
2023/11/30 11:26:47;;;;;;;28.52;16.45;;;1.40;99.90;;;;;;6274411;22;20090;-84
2023/11/30 11:29:35;;;;;;;27.48;16.50;;;1.40;99.90;;;;;;6274926;22;20314;-84
2023/11/30 11:32:33;;;;;;;31.05;16.05;;;1.50;99.90;;;;;;6273276;22;20177;-85
2023/11/30 11:35:20;;;;;;;22.33;13.38;;;1.60;99.90;;;;;;6277142;22;20042;-84
2023/11/30 11:38:07;;;;;;;22.45;12.95;;;1.70;99.90;;;;;;6273653;22;20394;-83
2023/11/30 11:40:55;;;;;;;19.83;12.15;;;1.80;99.90;;;;;;6274578;22;20023;-82
2023/11/30 11:43:44;;;;;;;18.30;10.70;;;1.90;99.90;;;;;;6274766;22;20024;-84
2023/11/30 11:46:41;;;;;;;17.65;12.05;;;1.90;99.90;;;;;;6274608;22;20051;-84
2023/11/30 11:49:28;;;;;;;18.30;12.68;;;1.90;99.90;;;;;;6275931;22;20051;-84
2023/11/30 11:52:22;;;;;;;18.65;11.07;;;2.00;99.90;;;;;;6274415;22;20110;-83
2023/11/30 11:55:11;;;;;;;22.30;13.60;;;2.00;99.90;;;;;;6271222;22;20062;-84
2023/11/30 11:57:58;;;;;;;26.10;16.55;;;2.00;99.90;;;;;;6274865;22;20020;-84
2023/11/30 12:00:53;;;;;;;34.67;18.40;;;2.00;99.90;;;;;;6271924;22;20326;-83
2023/11/30 12:03:52;;;;;;;23.98;14.00;;;2.10;99.90;;;;;;6274165;22;20349;-79
2023/11/30 12:06:39;;;;;;;24.45;13.68;;;2.00;99.90;;;;;;6278222;22;20034;-79
2023/11/30 12:09:28;;;;;;;29.35;14.95;;;2.00;99.90;;;;;;6278143;22;20410;-84
2023/11/30 12:12:16;;;;;;;23.00;14.00;;;2.00;99.90;;;;;;6275440;22;20417;-85
2023/11/30 12:15:04;;;;;;;23.35;12.65;;;2.00;99.90;;;;;;6275591;22;20027;-82
2023/11/30 12:17:57;;;;;;;25.23;13.27;;;1.90;99.90;;;;;;6276344;22;20089;-85
2023/11/30 12:20:45;;;;;;;20.10;11.73;;;1.90;99.90;;;;;;6277633;22;20035;-85
2023/11/30 12:23:39;;;;;;;19.50;10.80;;;1.90;99.90;;;;;;6277614;22;20078;-85
2023/11/30 12:26:26;;;;;;;16.65;10.20;;;1.90;99.90;;;;;;6274923;22;20396;-85
2023/11/30 12:29:14;;;;;;;18.27;9.95;;;2.00;99.90;;;;;;6276282;22;20418;-84
2023/11/30 12:32:01;;;;;;;14.40;9.65;;;2.00;99.90;;;;;;6278110;22;20051;-84
2023/11/30 12:34:49;;;;;;;18.35;11.45;;;2.10;99.90;;;;;;6277996;22;20028;-84
2023/11/30 12:37:37;;;;;;;15.68;9.75;;;2.20;99.90;;;;;;6275844;22;20115;-84
2023/11/30 12:40:25;;;;;;;13.60;9.55;;;2.30;99.90;;;;;;6275141;22;20023;-84
2023/11/30 12:43:16;;;;;;;16.77;10.27;;;2.30;99.90;;;;;;6274729;22;20489;-85
2023/11/30 12:46:04;;;;;;;12.65;8.93;;;2.40;99.90;;;;;;6272960;22;20031;-81
2023/11/30 12:48:52;;;;;;;15.23;9.52;;;2.40;99.90;;;;;;6276501;22;20042;-85
2023/11/30 12:51:39;;;;;;;17.42;10.43;;;2.40;99.90;;;;;;6276919;22;20027;-85
2023/11/30 12:54:27;;;;;;;16.35;9.43;;;2.50;99.90;;;;;;6274758;22;20028;-81
2023/11/30 12:57:17;;;;;;;14.57;10.25;;;2.50;99.90;;;;;;6275838;22;20084;-84
2023/11/30 13:00:13;;;;;;;16.70;9.68;;;2.50;99.90;;;;;;6277956;22;20035;-84
2023/11/30 13:03:02;;;;;;;16.55;9.35;;;2.50;99.90;;;;;;6277858;22;20401;-85
2023/11/30 13:05:50;;;;;;;14.05;9.13;;;2.50;99.90;;;;;;6272305;22;20441;-84
2023/11/30 13:08:37;;;;;;;12.98;8.57;;;2.50;99.90;;;;;;6274312;22;20024;-82
2023/11/30 13:11:27;;;;;;;12.35;8.48;;;2.60;99.90;;;;;;6275072;22;20419;-82
2023/11/30 13:14:18;;;;;;;11.82;8.18;;;2.60;99.90;;;;;;6275076;22;20035;-85
2023/11/30 13:17:05;;;;;;;41.92;19.77;;;2.60;99.90;;;;;;6276003;22;20023;-85
2023/11/30 13:19:54;;;;;;;31.98;14.88;;;2.50;99.90;;;;;;6272759;22;20395;-84
2023/11/30 13:22:44;;;;;;;23.05;12.55;;;2.40;99.90;;;;;;6275352;22;20048;-84
2023/11/30 13:25:31;;;;;;;28.20;14.85;;;2.40;99.90;;;;;;6280049;22;20433;-85
2023/11/30 13:28:19;;;;;;;19.33;11.32;;;2.40;99.90;;;;;;6285149;22;20042;-85
2023/11/30 13:31:07;;;;;;;19.67;11.57;;;2.30;99.90;;;;;;6289311;22;20077;-84
2023/11/30 13:33:57;;;;;;;24.45;13.68;;;2.20;99.90;;;;;;6294224;22;20026;-81
2023/11/30 13:36:48;;;;;;;23.58;14.93;;;2.20;99.90;;;;;;6301360;22;20026;-80
2023/11/30 13:39:37;;;;;;;24.77;14.52;;;2.10;99.90;;;;;;6298402;22;20019;-84
2023/11/30 13:42:27;;;;;;;25.52;14.50;;;2.10;99.90;;;;;;6293752;22;20063;-83
2023/11/30 13:45:17;;;;;;;21.90;13.77;;;2.10;99.90;;;;;;6287761;22;20047;-84
2023/11/30 13:48:04;;;;;;;21.98;13.02;;;2.10;99.90;;;;;;6284963;22;20310;-84
2023/11/30 13:50:52;;;;;;;24.05;14.32;;;2.10;99.90;;;;;;6276597;22;20118;-84
2023/11/30 13:53:51;;;;;;;22.25;13.95;;;2.00;99.90;;;;;;6273910;22;20050;-84
2023/11/30 13:56:40;;;;;;;21.70;13.30;;;2.00;99.90;;;;;;6275496;22;20027;-84
2023/11/30 13:59:27;;;;;;;18.00;12.30;;;2.00;99.90;;;;;;6274781;22;20020;-84
2023/11/30 14:02:14;;;;;;;19.77;12.80;;;2.00;99.90;;;;;;6275886;22;20106;-83
2023/11/30 14:05:03;;;;;;;35.80;19.13;;;2.00;99.90;;;;;;6275579;22;20394;-85
2023/11/30 14:07:51;;;;;;;30.75;16.88;;;2.00;99.90;;;;;;6275674;22;20024;-84
2023/11/30 14:10:39;;;;;;;29.17;16.88;;;1.90;99.90;;;;;;6272344;22;20120;-84
2023/11/30 14:13:29;;;;;;;23.23;15.90;;;1.90;99.90;;;;;;6275004;22;20028;-85
2023/11/30 14:16:17;;;;;;;25.70;14.68;;;1.90;99.90;;;;;;6274667;22;20024;-81
2023/11/30 14:19:05;;;;;;;27.77;15.70;;;1.80;99.90;;;;;;6274386;22;20034;-84